Time;durP1;ratioP1;P1;durP2;ratioP2;P2;SDS_P1;SDS_P2;PMS_P1;PMS_P2;Temp;Humidity;BMP_temperature;BMP_pressure;BME280_temperature;BME280_humidity;BME280_pressure;Samples;Min_cycle;Max_cycle;Signal;HPM_P1;HPM_P2
2021/03/26 00:00:38;;;;;;;;;;;12.80;70.30;;;;;;2074814;28;757;-49
2021/03/26 00:01:58;;;;;;;;;;;12.80;70.30;;;;;;2081570;28;814;-54
2021/03/26 00:03:18;;;;;;;;;;;12.80;70.20;;;;;;2081532;28;730;-47
2021/03/26 00:04:38;;;;;;;;;;;12.70;70.10;;;;;;2080834;28;1977;-51
2021/03/26 00:05:58;;;;;;;;;;;12.70;70.10;;;;;;2077695;28;754;-48
2021/03/26 00:07:17;;;;;;;;;;;12.80;70.20;;;;;;2077938;28;733;-48
2021/03/26 00:08:36;;;;;;;;;;;12.80;70.20;;;;;;2083852;28;1506;-51
2021/03/26 00:09:56;;;;;;;;;;;12.70;70.10;;;;;;2084592;28;772;-49
2021/03/26 00:11:15;;;;;;;;;;;12.70;70.10;;;;;;2081521;28;797;-50
2021/03/26 00:12:34;;;;;;;;;;;12.70;70.80;;;;;;2089116;28;1318;-50
2021/03/26 00:13:53;;;;;;;;;;;12.70;70.10;;;;;;2084495;28;907;-51
2021/03/26 00:15:13;;;;;;;;;;;12.70;70.10;;;;;;2083560;28;1765;-48
2021/03/26 00:16:32;;;;;;;;;;;12.70;70.10;;;;;;2088964;28;768;-50
2021/03/26 00:17:52;;;;;;;;;;;12.70;70.10;;;;;;2091893;28;1095;-49
2021/03/26 00:19:11;;;;;;;;;;;12.70;70.10;;;;;;2095033;28;1019;-52
2021/03/26 00:20:30;;;;;;;;;;;12.70;70.10;;;;;;2081875;28;889;-54
2021/03/26 00:21:49;;;;;;;;;;;12.70;70.10;;;;;;2096959;28;784;-52
2021/03/26 00:23:09;;;;;;;;;;;12.70;70.10;;;;;;2095916;28;1901;-55
2021/03/26 00:24:28;;;;;;;;;;;12.70;70.10;;;;;;2089706;28;1599;-52
2021/03/26 00:25:47;;;;;;;;;;;12.70;70.00;;;;;;2081384;28;1770;-51
2021/03/26 00:27:06;;;;;;;;;;;12.70;70.00;;;;;;2081340;28;730;-51
2021/03/26 00:28:25;;;;;;;;;;;12.70;70.70;;;;;;2081504;28;755;-51
2021/03/26 00:29:44;;;;;;;;;;;12.70;70.00;;;;;;2081425;28;760;-51
2021/03/26 00:31:03;;;;;;;;;;;12.70;70.70;;;;;;2081551;28;1449;-50
2021/03/26 00:32:23;;;;;;;;;;;12.70;70.00;;;;;;2081298;28;1902;-51
2021/03/26 00:33:42;;;;;;;;;;;12.70;70.00;;;;;;2080658;28;711;-51
2021/03/26 00:35:01;;;;;;;;;;;12.70;70.00;;;;;;2080763;28;1378;-51
2021/03/26 00:36:20;;;;;;;;;;;12.70;69.90;;;;;;2089412;28;826;-51
2021/03/26 00:37:40;;;;;;;;;;;12.70;69.90;;;;;;2089113;28;821;-50
2021/03/26 00:38:59;;;;;;;;;;;12.70;69.90;;;;;;2085882;28;733;-49
2021/03/26 00:40:18;;;;;;;;;;;12.70;69.90;;;;;;2089060;28;781;-49
2021/03/26 00:41:38;;;;;;;;;;;12.70;69.90;;;;;;2089831;28;740;-53
2021/03/26 00:42:57;;;;;;;;;;;12.70;69.90;;;;;;2089245;28;1452;-48
2021/03/26 00:44:16;;;;;;;;;;;12.70;69.80;;;;;;2082522;28;1716;-49
2021/03/26 00:45:35;;;;;;;;;;;12.70;69.80;;;;;;2085191;28;2008;-51
2021/03/26 00:46:55;;;;;;;;;;;12.70;69.80;;;;;;2089337;28;729;-51
2021/03/26 00:48:14;;;;;;;;;;;12.70;69.80;;;;;;2089641;28;751;-48
2021/03/26 00:49:33;;;;;;;;;;;12.70;69.80;;;;;;2073821;28;992;-51
2021/03/26 00:50:54;;;;;;;;;;;12.70;69.80;;;;;;2091001;28;1250;-49
2021/03/26 00:52:13;;;;;;;;;;;12.70;69.90;;;;;;2088910;28;1507;-48
2021/03/26 00:53:33;;;;;;;;;;;12.60;69.80;;;;;;2089112;28;725;-50
2021/03/26 00:54:54;;;;;;;;;;;12.70;69.80;;;;;;2077373;28;713;-51
2021/03/26 00:56:14;;;;;;;;;;;12.60;69.70;;;;;;2075091;28;1265;-49
2021/03/26 00:57:33;;;;;;;;;;;12.60;69.80;;;;;;2091693;28;1136;-49
2021/03/26 00:58:52;;;;;;;;;;;12.60;69.70;;;;;;2089144;28;1593;-49
2021/03/26 01:00:14;;;;;;;;;;;12.60;70.40;;;;;;2082429;28;756;-50
2021/03/26 01:01:33;;;;;;;;;;;12.60;70.30;;;;;;2082818;28;721;-48
2021/03/26 01:02:52;;;;;;;;;;;12.60;69.60;;;;;;2090646;28;1395;-47
2021/03/26 01:04:11;;;;;;;;;;;12.60;69.60;;;;;;2085897;28;719;-54
2021/03/26 01:05:32;;;;;;;;;;;12.60;69.70;;;;;;2086307;28;1902;-49
2021/03/26 01:06:51;;;;;;;;;;;12.60;69.70;;;;;;2090516;28;809;-53
2021/03/26 01:08:11;;;;;;;;;;;12.60;69.60;;;;;;2079175;28;737;-47
2021/03/26 01:09:30;;;;;;;;;;;12.60;69.60;;;;;;2083848;28;728;-47
2021/03/26 01:10:57;;;;;;;;;;;12.60;69.60;;;;;;2079138;28;725;-47
2021/03/26 01:12:17;;;;;;;;;;;12.60;69.60;;;;;;2079997;28;1383;-48
2021/03/26 01:13:36;;;;;;;;;;;12.60;70.00;;;;;;2078985;28;1595;-46
2021/03/26 01:14:55;;;;;;;;;;;12.60;69.60;;;;;;2082061;28;732;-46
2021/03/26 01:16:15;;;;;;;;;;;12.60;69.60;;;;;;2082251;28;725;-48
2021/03/26 01:17:35;;;;;;;;;;;12.60;69.60;;;;;;2079265;28;749;-47
2021/03/26 01:18:55;;;;;;;;;;;12.60;69.60;;;;;;2093204;28;1575;-47
2021/03/26 01:20:15;;;;;;;;;;;12.60;69.60;;;;;;2091555;28;1027;-49
2021/03/26 01:21:36;;;;;;;;;;;12.60;70.30;;;;;;2082645;28;749;-48
2021/03/26 01:22:55;;;;;;;;;;;12.60;69.60;;;;;;2082302;28;1378;-46
2021/03/26 01:24:16;;;;;;;;;;;12.60;69.70;;;;;;2082732;28;799;-48
2021/03/26 01:25:37;;;;;;;;;;;12.60;69.50;;;;;;2077581;28;1914;-47
2021/03/26 01:27:11;;;;;;;;;;;12.60;69.50;;;;;;2089054;28;716;-48
2021/03/26 01:28:34;;;;;;;;;;;12.60;69.50;;;;;;2087009;28;2169;-47
2021/03/26 01:30:13;;;;;;;;;;;12.60;70.20;;;;;;2083223;28;757;-48
2021/03/26 01:31:32;;;;;;;;;;;12.60;69.50;;;;;;2082283;28;721;-47
2021/03/26 01:32:52;;;;;;;;;;;12.60;69.40;;;;;;2086846;28;1484;-47
2021/03/26 01:34:12;;;;;;;;;;;12.60;69.50;;;;;;2081798;28;718;-48
2021/03/26 01:35:40;;;;;;;;;;;12.60;69.50;;;;;;2079742;28;1878;-48
2021/03/26 01:37:00;;;;;;;;;;;12.60;69.50;;;;;;2082024;28;1617;-48
2021/03/26 01:38:20;;;;;;;;;;;12.60;69.50;;;;;;2076090;28;1612;-48
2021/03/26 01:39:44;;;;;;;;;;;12.50;69.30;;;;;;2077231;28;705;-48
2021/03/26 01:41:09;;;;;;;;;;;12.60;69.30;;;;;;2088023;28;823;-48
2021/03/26 01:42:30;;;;;;;;;;;12.50;70.00;;;;;;2089055;28;1516;-48
2021/03/26 01:43:50;;;;;;;;;;;12.50;69.30;;;;;;2079577;28;709;-47
2021/03/26 01:45:11;;;;;;;;;;;12.60;69.40;;;;;;2078347;28;1972;-48
2021/03/26 01:46:40;;;;;;;;;;;12.50;69.30;;;;;;2080371;28;745;-48
2021/03/26 01:48:00;;;;;;;;;;;12.50;69.50;;;;;;2085224;28;1091;-46
2021/03/26 01:49:22;;;;;;;;;;;12.50;69.40;;;;;;2094399;28;1091;-47
2021/03/26 01:50:46;;;;;;;;;;;12.50;69.60;;;;;;2081620;28;933;-48
2021/03/26 01:52:06;;;;;;;;;;;12.50;69.40;;;;;;2096391;28;1422;-47
2021/03/26 01:53:26;;;;;;;;;;;12.50;69.60;;;;;;2098511;28;739;-48
2021/03/26 01:54:46;;;;;;;;;;;12.50;69.40;;;;;;2094902;28;756;-47
2021/03/26 01:56:07;;;;;;;;;;;12.50;69.30;;;;;;2079955;28;1460;-48
2021/03/26 01:57:36;;;;;;;;;;;12.50;69.30;;;;;;2088604;28;1891;-48
2021/03/26 01:59:01;;;;;;;;;;;12.50;69.30;;;;;;2082211;28;738;-47
2021/03/26 02:00:25;;;;;;;;;;;12.50;69.40;;;;;;2084693;28;720;-47
2021/03/26 02:01:45;;;;;;;;;;;12.50;70.00;;;;;;2087406;28;815;-48
2021/03/26 02:03:07;;;;;;;;;;;12.50;69.20;;;;;;2087340;28;830;-46
2021/03/26 02:04:35;;;;;;;;;;;12.50;69.20;;;;;;2088266;28;757;-47
2021/03/26 02:06:22;;;;;;;;;;;12.50;69.30;;;;;;2082468;28;1756;-48
2021/03/26 02:07:42;;;;;;;;;;;12.50;69.30;;;;;;2081652;28;730;-47
2021/03/26 02:09:12;;;;;;;;;;;12.50;69.30;;;;;;2087675;28;741;-48
2021/03/26 02:10:31;;;;;;;;;;;12.50;69.30;;;;;;2079041;28;729;-48
2021/03/26 02:11:51;;;;;;;;;;;12.50;69.40;;;;;;2075739;28;774;-49
2021/03/26 02:13:15;;;;;;;;;;;12.50;69.40;;;;;;2082210;28;748;-48
2021/03/26 02:14:36;;;;;;;;;;;12.50;69.40;;;;;;2065296;28;940;-49
2021/03/26 02:15:56;;;;;;;;;;;12.50;69.50;;;;;;2067560;28;715;-46
2021/03/26 02:17:16;;;;;;;;;;;12.50;69.40;;;;;;2067808;28;1628;-51
2021/03/26 02:18:45;;;;;;;;;;;12.50;69.30;;;;;;2083986;28;1443;-47
2021/03/26 02:20:06;;;;;;;;;;;12.50;69.50;;;;;;2089878;28;1121;-49
2021/03/26 02:21:29;;;;;;;;;;;12.50;69.60;;;;;;2084720;28;1553;-47
2021/03/26 02:22:48;;;;;;;;;;;12.50;69.50;;;;;;2081715;28;1483;-48
2021/03/26 02:24:08;;;;;;;;;;;12.50;69.60;;;;;;2073946;28;1333;-48
2021/03/26 02:25:29;;;;;;;;;;;12.50;69.40;;;;;;2072776;28;1965;-48
2021/03/26 02:26:49;;;;;;;;;;;12.50;69.50;;;;;;2084004;28;1356;-47
2021/03/26 02:28:09;;;;;;;;;;;12.50;69.50;;;;;;2086929;28;707;-49
2021/03/26 02:29:31;;;;;;;;;;;12.40;69.20;;;;;;2086889;28;725;-48
2021/03/26 02:30:56;;;;;;;;;;;12.50;69.60;;;;;;2090003;28;781;-48
2021/03/26 02:32:26;;;;;;;;;;;12.50;69.50;;;;;;2089888;28;1373;-48
2021/03/26 02:33:46;;;;;;;;;;;12.50;69.40;;;;;;2081536;28;743;-48
2021/03/26 02:35:06;;;;;;;;;;;12.40;69.30;;;;;;2069538;28;777;-47
2021/03/26 02:36:30;;;;;;;;;;;12.40;69.20;;;;;;2083978;28;1635;-48
2021/03/26 02:38:10;;;;;;;;;;;12.40;69.30;;;;;;2081931;28;729;-49
2021/03/26 02:39:30;;;;;;;;;;;12.40;69.50;;;;;;2082301;28;1680;-47
2021/03/26 02:40:55;;;;;;;;;;;12.40;69.50;;;;;;2089777;28;761;-49
2021/03/26 02:42:21;;;;;;;;;;;12.40;69.30;;;;;;2087052;28;1334;-48
2021/03/26 02:44:09;;;;;;;;;;;12.40;69.50;;;;;;2089141;28;740;-49
2021/03/26 02:45:31;;;;;;;;;;;12.40;70.20;;;;;;2089016;28;1975;-49
2021/03/26 02:46:54;;;;;;;;;;;12.40;69.50;;;;;;2078388;28;1909;-48
2021/03/26 02:48:19;;;;;;;;;;;12.40;69.40;;;;;;2086660;28;788;-48
2021/03/26 02:49:43;;;;;;;;;;;12.40;69.50;;;;;;2082605;28;998;-48
2021/03/26 02:51:05;;;;;;;;;;;12.40;69.50;;;;;;2090487;28;1015;-47
2021/03/26 02:52:52;;;;;;;;;;;12.40;69.60;;;;;;2089789;28;1319;-47
2021/03/26 02:54:15;;;;;;;;;;;12.40;69.60;;;;;;2073249;28;773;-48
2021/03/26 02:55:42;;;;;;;;;;;12.40;69.60;;;;;;2070321;28;960;-48
2021/03/26 02:57:05;;;;;;;;;;;12.40;69.50;;;;;;2085569;28;1889;-48
2021/03/26 02:58:26;;;;;;;;;;;12.40;69.60;;;;;;2073449;28;800;-48
2021/03/26 02:59:57;;;;;;;;;;;12.40;69.50;;;;;;2077325;28;794;-48
2021/03/26 03:01:23;;;;;;;;;;;12.40;69.50;;;;;;2073281;28;733;-48
2021/03/26 03:02:42;;;;;;;;;;;12.40;69.50;;;;;;2092565;28;1775;-49
2021/03/26 03:04:05;;;;;;;;;;;12.40;69.50;;;;;;2084249;28;731;-48
2021/03/26 03:05:28;;;;;;;;;;;12.40;69.50;;;;;;2080667;28;1910;-49
2021/03/26 03:06:54;;;;;;;;;;;12.40;69.40;;;;;;2085164;28;1658;-48
2021/03/26 03:08:32;;;;;;;;;;;12.40;69.50;;;;;;2089363;28;733;-47
2021/03/26 03:10:18;;;;;;;;;;;12.40;69.50;;;;;;2087767;28;697;-48
2021/03/26 03:11:39;;;;;;;;;;;12.40;69.50;;;;;;2097951;28;712;-47
2021/03/26 03:13:22;;;;;;;;;;;12.40;69.50;;;;;;2078866;28;733;-48
2021/03/26 03:14:46;;;;;;;;;;;12.40;69.60;;;;;;2098292;28;997;-48
2021/03/26 03:16:15;;;;;;;;;;;12.40;69.30;;;;;;2089555;28;717;-49
2021/03/26 03:18:03;;;;;;;;;;;12.30;69.20;;;;;;2070268;28;750;-49
2021/03/26 03:19:25;;;;;;;;;;;12.30;69.40;;;;;;2090405;28;1567;-48
2021/03/26 03:20:46;;;;;;;;;;;12.40;69.60;;;;;;2085615;28;870;-48
2021/03/26 03:22:39;;;;;;;;;;;12.40;69.70;;;;;;2096623;28;1301;-49
2021/03/26 03:24:06;;;;;;;;;;;12.30;69.40;;;;;;2084524;28;1100;-48
2021/03/26 03:25:29;;;;;;;;;;;12.30;69.30;;;;;;2084740;28;2024;-48
2021/03/26 03:26:53;;;;;;;;;;;12.30;69.40;;;;;;2081105;28;1653;-48
2021/03/26 03:28:15;;;;;;;;;;;12.30;69.40;;;;;;2089862;28;1109;-49
2021/03/26 03:29:37;;;;;;;;;;;12.30;69.30;;;;;;2083825;28;944;-48
2021/03/26 03:31:11;;;;;;;;;;;12.30;69.50;;;;;;2094980;28;1634;-48
2021/03/26 03:32:33;;;;;;;;;;;12.30;69.50;;;;;;2094250;28;1353;-50
2021/03/26 03:34:03;;;;;;;;;;;12.30;69.40;;;;;;2094569;28;865;-48
2021/03/26 03:35:54;;;;;;;;;;;12.30;69.40;;;;;;2085755;28;880;-46
2021/03/26 03:37:38;;;;;;;;;;;12.30;69.40;;;;;;2088377;28;1585;-47
2021/03/26 03:39:01;;;;;;;;;;;12.30;69.30;;;;;;2087820;28;1719;-48
2021/03/26 03:40:51;;;;;;;;;;;12.30;69.30;;;;;;2080529;28;777;-48
2021/03/26 03:42:10;;;;;;;;;;;12.30;69.40;;;;;;2078019;28;1310;-48
2021/03/26 03:43:33;;;;;;;;;;;12.30;69.40;;;;;;2090768;28;921;-48
2021/03/26 03:44:52;;;;;;;;;;;12.30;69.30;;;;;;2091185;28;1914;-48
2021/03/26 03:46:11;;;;;;;;;;;12.30;69.40;;;;;;2085995;28;980;-47
2021/03/26 03:48:00;;;;;;;;;;;12.30;69.40;;;;;;2096670;28;827;-48
2021/03/26 03:49:23;;;;;;;;;;;12.30;69.40;;;;;;2080498;28;811;-48
2021/03/26 03:50:44;;;;;;;;;;;12.30;69.70;;;;;;2087787;28;948;-48
2021/03/26 03:52:19;;;;;;;;;;;12.30;69.70;;;;;;2094541;28;1470;-48
2021/03/26 03:53:41;;;;;;;;;;;12.30;69.50;;;;;;2092427;28;1039;-47
2021/03/26 03:55:17;;;;;;;;;;;12.30;69.60;;;;;;2071687;28;726;-53
2021/03/26 03:56:46;;;;;;;;;;;12.30;69.40;;;;;;2080532;28;1822;-52
2021/03/26 03:58:05;;;;;;;;;;;12.20;69.40;;;;;;2080831;28;734;-51
2021/03/26 03:59:38;;;;;;;;;;;12.20;69.50;;;;;;2077838;28;768;-51
2021/03/26 04:01:29;;;;;;;;;;;12.20;69.40;;;;;;2080386;28;741;-51
2021/03/26 04:03:09;;;;;;;;;;;12.20;69.50;;;;;;2072365;28;1482;-52
2021/03/26 04:04:47;;;;;;;;;;;12.20;69.20;;;;;;2080162;28;832;-53
2021/03/26 04:06:09;;;;;;;;;;;12.20;69.30;;;;;;2095114;28;1368;-52
2021/03/26 04:07:52;;;;;;;;;;;12.20;70.10;;;;;;2087529;28;1618;-52
2021/03/26 04:09:12;;;;;;;;;;;12.20;69.50;;;;;;2084819;28;2070;-53
2021/03/26 04:10:38;;;;;;;;;;;12.20;69.40;;;;;;2090438;28;1288;-50
2021/03/26 04:11:59;;;;;;;;;;;12.20;69.40;;;;;;2086038;28;860;-50
2021/03/26 04:13:39;;;;;;;;;;;12.20;69.40;;;;;;2086353;28;1120;-51
2021/03/26 04:15:14;;;;;;;;;;;12.20;69.30;;;;;;2077922;28;1597;-55
2021/03/26 04:16:40;;;;;;;;;;;12.20;70.20;;;;;;2089035;28;2062;-53
2021/03/26 04:18:08;;;;;;;;;;;12.20;69.50;;;;;;2081203;28;925;-50
2021/03/26 04:19:51;;;;;;;;;;;12.20;69.40;;;;;;2088522;28;1141;-52
2021/03/26 04:21:12;;;;;;;;;;;12.20;69.30;;;;;;2088824;28;1196;-52
2021/03/26 04:22:47;;;;;;;;;;;12.20;69.40;;;;;;2079947;28;1487;-49
2021/03/26 04:24:21;;;;;;;;;;;12.20;69.40;;;;;;2086506;28;1233;-50
2021/03/26 04:26:05;;;;;;;;;;;12.20;69.30;;;;;;2091351;28;827;-49
2021/03/26 04:27:44;;;;;;;;;;;12.20;69.70;;;;;;2095312;28;1510;-50
2021/03/26 04:29:19;;;;;;;;;;;12.20;70.20;;;;;;2087357;28;1209;-50
2021/03/26 04:30:55;;;;;;;;;;;12.20;70.00;;;;;;2093103;28;1399;-53
2021/03/26 04:32:25;;;;;;;;;;;12.20;69.20;;;;;;2087433;28;1438;-49
2021/03/26 04:33:46;;;;;;;;;;;12.20;69.50;;;;;;2083625;28;1464;-49
2021/03/26 04:35:08;;;;;;;;;;;12.20;68.80;;;;;;2089761;28;1501;-50
2021/03/26 04:36:28;;;;;;;;;;;12.30;68.60;;;;;;2087778;28;1152;-51
2021/03/26 04:38:07;;;;;;;;;;;12.30;68.20;;;;;;2096405;28;1314;-50
2021/03/26 04:39:35;;;;;;;;;;;12.20;67.60;;;;;;2095353;28;1714;-54
2021/03/26 04:40:56;;;;;;;;;;;12.20;68.30;;;;;;2089647;28;1137;-51
2021/03/26 04:42:22;;;;;;;;;;;12.20;67.40;;;;;;2094677;28;1468;-51
2021/03/26 04:43:47;;;;;;;;;;;12.20;67.60;;;;;;2098294;28;920;-49
2021/03/26 04:45:15;;;;;;;;;;;12.20;67.80;;;;;;2086829;28;1918;-51
2021/03/26 04:46:47;;;;;;;;;;;12.20;68.20;;;;;;2088425;28;1108;-50
2021/03/26 04:48:15;;;;;;;;;;;12.20;69.30;;;;;;2090159;28;1361;-50
2021/03/26 04:49:59;;;;;;;;;;;12.20;69.70;;;;;;2094380;28;1419;-51
2021/03/26 04:51:22;;;;;;;;;;;12.20;69.10;;;;;;2092507;28;1428;-51
2021/03/26 04:53:16;;;;;;;;;;;12.20;69.30;;;;;;2087147;28;1567;-51
2021/03/26 04:54:39;;;;;;;;;;;12.20;69.40;;;;;;2090377;28;1177;-49
2021/03/26 04:56:21;;;;;;;;;;;12.10;69.40;;;;;;2095387;28;1254;-51
2021/03/26 04:58:13;;;;;;;;;;;12.20;69.50;;;;;;2089568;28;1329;-52
2021/03/26 04:59:54;;;;;;;;;;;12.10;70.10;;;;;;2093798;28;1124;-51
2021/03/26 05:01:15;;;;;;;;;;;12.10;69.50;;;;;;2098278;28;1153;-51
2021/03/26 05:02:43;;;;;;;;;;;12.10;69.50;;;;;;2087553;28;1412;-53
2021/03/26 05:04:12;;;;;;;;;;;12.10;69.50;;;;;;2096960;28;1233;-50
2021/03/26 05:05:31;;;;;;;;;;;12.10;69.60;;;;;;2077455;28;1902;-48
2021/03/26 05:07:12;;;;;;;;;;;12.10;70.30;;;;;;2083031;28;1625;-52
2021/03/26 05:08:32;;;;;;;;;;;12.10;69.50;;;;;;2070912;28;770;-50
2021/03/26 05:10:13;;;;;;;;;;;12.10;69.60;;;;;;2082740;28;2428;-52
2021/03/26 05:11:54;;;;;;;;;;;12.10;70.30;;;;;;2081381;28;1538;-51
2021/03/26 05:13:15;;;;;;;;;;;12.10;69.60;;;;;;2078838;28;1304;-49
2021/03/26 05:14:39;;;;;;;;;;;12.10;69.60;;;;;;2083342;28;1439;-50
2021/03/26 05:16:00;;;;;;;;;;;12.10;70.40;;;;;;2089510;28;1173;-48
2021/03/26 05:17:29;;;;;;;;;;;12.10;69.60;;;;;;2087220;28;1205;-53
2021/03/26 05:19:12;;;;;;;;;;;12.10;70.30;;;;;;2091609;28;1392;-47
2021/03/26 05:20:33;;;;;;;;;;;12.10;69.60;;;;;;2084968;28;1298;-47
2021/03/26 05:22:28;;;;;;;;;;;12.10;69.60;;;;;;2088934;28;1408;-54
2021/03/26 05:24:12;;;;;;;;;;;12.10;70.50;;;;;;2083140;28;1095;-51
2021/03/26 05:25:57;;;;;;;;;;;12.10;69.60;;;;;;2094110;28;1411;-46
2021/03/26 05:27:30;;;;;;;;;;;12.10;69.50;;;;;;2082049;28;1265;-51
2021/03/26 05:28:49;;;;;;;;;;;12.10;69.20;;;;;;2085917;28;1276;-50
2021/03/26 05:30:17;;;;;;;;;;;12.10;68.90;;;;;;2087353;28;1252;-53
2021/03/26 05:31:40;;;;;;;;;;;12.10;68.90;;;;;;2075611;28;1711;-48
2021/03/26 05:33:27;;;;;;;;;;;12.10;69.00;;;;;;2071558;28;1754;-49
2021/03/26 05:35:09;;;;;;;;;;;12.10;69.30;;;;;;2082316;28;1468;-52
2021/03/26 05:36:43;;;;;;;;;;;12.10;69.50;;;;;;2090999;28;1806;-56
2021/03/26 05:38:32;;;;;;;;;;;12.10;70.00;;;;;;2076355;28;1861;-51
2021/03/26 05:40:33;;;;;;;;;;;12.10;70.30;;;;;;2095400;28;1692;-52
2021/03/26 05:42:19;;;;;;;;;;;12.10;70.50;;;;;;2083379;28;1803;-54
2021/03/26 05:44:08;;;;;;;;;;;12.10;70.50;;;;;;2074861;28;1749;-50
2021/03/26 05:45:38;;;;;;;;;;;12.10;70.60;;;;;;2074110;28;1914;-51
2021/03/26 05:47:34;;;;;;;;;;;12.10;70.60;;;;;;2079083;28;1688;-50
2021/03/26 05:48:59;;;;;;;;;;;12.10;70.70;;;;;;2083806;28;1781;-57
2021/03/26 05:50:22;;;;;;;;;;;12.10;71.40;;;;;;2080163;28;1555;-52
2021/03/26 05:52:00;;;;;;;;;;;12.00;70.60;;;;;;2073643;28;1680;-50
2021/03/26 05:53:19;;;;;;;;;;;12.10;70.90;;;;;;2090844;28;1657;-51
2021/03/26 05:55:32;;;;;;;;;;;12.00;70.60;;;;;;2083548;28;1644;-52
2021/03/26 05:57:04;;;;;;;;;;;12.00;70.60;;;;;;2083772;28;1545;-52
2021/03/26 05:58:49;;;;;;;;;;;12.00;70.60;;;;;;2082030;28;1650;-54
2021/03/26 06:00:15;;;;;;;;;;;12.00;70.60;;;;;;2074969;28;1660;-50
2021/03/26 06:01:49;;;;;;;;;;;12.00;70.50;;;;;;2073959;28;2016;-52
2021/03/26 06:03:42;;;;;;;;;;;12.00;70.20;;;;;;2082113;28;1676;-52
2021/03/26 06:05:39;;;;;;;;;;;12.10;70.30;;;;;;2083235;28;1969;-51
2021/03/26 06:07:21;;;;;;;;;;;12.10;70.20;;;;;;2083069;28;1626;-51
2021/03/26 06:09:05;;;;;;;;;;;12.20;70.50;;;;;;2082380;28;1610;-52
2021/03/26 06:10:48;;;;;;;;;;;12.30;71.00;;;;;;2083574;28;1651;-51
2021/03/26 06:12:44;;;;;;;;;;;12.40;70.00;;;;;;2075157;28;1723;-50
2021/03/26 06:14:37;;;;;;;;;;;12.40;70.50;;;;;;2082655;28;1685;-50
2021/03/26 06:16:27;;;;;;;;;;;12.50;69.00;;;;;;2082477;28;1741;-53
2021/03/26 06:18:05;;;;;;;;;;;12.60;68.60;;;;;;2083621;28;1718;-48
2021/03/26 06:19:43;;;;;;;;;;;12.70;68.10;;;;;;2083085;28;1609;-52
2021/03/26 06:21:28;;;;;;;;;;;12.70;68.20;;;;;;2083388;28;1680;-51
2021/03/26 06:23:21;;;;;;;;;;;12.80;66.80;;;;;;2082520;28;1848;-53
2021/03/26 06:25:17;;;;;;;;;;;12.80;66.50;;;;;;2078667;28;2017;-55
2021/03/26 06:26:57;;;;;;;;;;;12.90;66.10;;;;;;2073142;28;1591;-49
2021/03/26 06:28:25;;;;;;;;;;;12.90;65.60;;;;;;2086002;28;1682;-49
2021/03/26 06:29:58;;;;;;;;;;;13.00;65.40;;;;;;2080745;28;1680;-50
2021/03/26 06:31:28;;;;;;;;;;;13.00;65.20;;;;;;2082854;28;1738;-53
2021/03/26 06:33:19;;;;;;;;;;;13.00;65.00;;;;;;2082957;28;1638;-50
2021/03/26 06:34:57;;;;;;;;;;;13.00;64.90;;;;;;2075294;28;1649;-51
2021/03/26 06:36:36;;;;;;;;;;;13.00;64.90;;;;;;2082699;28;1722;-51
2021/03/26 06:38:14;;;;;;;;;;;13.00;64.90;;;;;;2081396;28;1721;-53
2021/03/26 06:39:38;;;;;;;;;;;13.00;64.90;;;;;;2083758;28;1537;-52
2021/03/26 06:41:10;;;;;;;;;;;13.10;64.70;;;;;;2078511;28;1771;-50
2021/03/26 06:42:30;;;;;;;;;;;13.10;65.20;;;;;;2079500;28;1648;-52
2021/03/26 06:44:08;;;;;;;;;;;13.10;64.20;;;;;;2081928;28;1785;-51
2021/03/26 06:45:33;;;;;;;;;;;13.10;64.10;;;;;;2082373;28;1894;-51
2021/03/26 06:46:53;;;;;;;;;;;13.20;64.00;;;;;;2082438;28;1647;-50
2021/03/26 06:48:21;;;;;;;;;;;13.20;63.80;;;;;;2084569;28;1633;-49
2021/03/26 06:49:46;;;;;;;;;;;13.20;64.50;;;;;;2083647;28;1612;-50
2021/03/26 06:51:15;;;;;;;;;;;13.20;63.80;;;;;;2082932;28;1628;-51
2021/03/26 06:52:43;;;;;;;;;;;13.20;63.80;;;;;;2082029;28;1856;-50
2021/03/26 06:54:06;;;;;;;;;;;13.20;63.70;;;;;;2084424;28;1581;-51
2021/03/26 06:55:34;;;;;;;;;;;13.20;63.80;;;;;;2081685;28;1591;-48
2021/03/26 06:56:53;;;;;;;;;;;13.20;63.80;;;;;;2083775;28;1830;-49
2021/03/26 06:58:15;;;;;;;;;;;13.20;63.80;;;;;;2082618;28;1619;-49
2021/03/26 06:59:49;;;;;;;;;;;13.20;63.90;;;;;;2082057;28;1758;-53
2021/03/26 07:01:27;;;;;;;;;;;13.10;63.90;;;;;;2082180;28;1696;-52
2021/03/26 07:02:53;;;;;;;;;;;13.20;64.10;;;;;;2081973;28;1750;-49
2021/03/26 07:04:31;;;;;;;;;;;13.20;64.20;;;;;;2082369;28;1625;-54
2021/03/26 07:05:57;;;;;;;;;;;13.10;64.20;;;;;;2082045;28;1906;-53
2021/03/26 07:07:22;;;;;;;;;;;13.10;64.20;;;;;;2079471;28;1608;-52
2021/03/26 07:09:00;;;;;;;;;;;13.10;64.40;;;;;;2083430;28;1599;-52
2021/03/26 07:10:23;;;;;;;;;;;13.10;64.40;;;;;;2081793;28;1620;-53
2021/03/26 07:11:50;;;;;;;;;;;13.10;64.40;;;;;;2078774;28;1614;-55
2021/03/26 07:13:21;;;;;;;;;;;13.10;64.50;;;;;;2080918;28;1625;-49
2021/03/26 07:14:59;;;;;;;;;;;13.10;64.50;;;;;;2082933;28;1646;-52
2021/03/26 07:16:30;;;;;;;;;;;13.10;64.60;;;;;;2102658;28;1636;-49
2021/03/26 07:18:01;;;;;;;;;;;13.10;64.60;;;;;;2097811;28;1836;-52
2021/03/26 07:19:30;;;;;;;;;;;13.00;64.60;;;;;;2097494;28;1547;-52
2021/03/26 07:20:56;;;;;;;;;;;13.10;64.80;;;;;;2097401;28;1543;-50
2021/03/26 07:22:26;;;;;;;;;;;13.10;65.60;;;;;;2088068;28;1879;-50
2021/03/26 07:23:54;;;;;;;;;;;13.10;65.00;;;;;;2086718;28;1928;-51
2021/03/26 07:25:13;;;;;;;;;;;13.00;65.00;;;;;;2085314;28;1667;-49
2021/03/26 07:26:51;;;;;;;;;;;13.00;65.00;;;;;;2093350;28;1699;-51
2021/03/26 07:28:10;;;;;;;;;;;13.00;65.10;;;;;;2098265;28;1555;-52
2021/03/26 07:29:36;;;;;;;;;;;13.00;65.10;;;;;;2098783;28;1567;-52
2021/03/26 07:31:11;;;;;;;;;;;13.00;65.20;;;;;;2097521;28;1662;-53
2021/03/26 07:32:33;;;;;;;;;;;13.00;65.30;;;;;;2089892;28;1673;-54
2021/03/26 07:33:54;;;;;;;;;;;13.00;65.30;;;;;;2085803;28;1667;-52
2021/03/26 07:35:31;;;;;;;;;;;13.00;66.20;;;;;;2084422;28;1629;-55
2021/03/26 07:36:50;;;;;;;;;;;13.00;65.50;;;;;;2088332;28;1689;-49
2021/03/26 07:38:32;;;;;;;;;;;13.00;66.80;;;;;;2086274;28;1598;-52
2021/03/26 07:40:10;;;;;;;;;;;13.00;66.70;;;;;;2060594;28;2009;-51
2021/03/26 07:41:39;;;;;;;;;;;13.00;68.30;;;;;;2097717;28;1589;-50
2021/03/26 07:43:17;;;;;;;;;;;12.90;69.30;;;;;;2089419;28;1727;-52
2021/03/26 07:44:39;;;;;;;;;;;12.90;70.30;;;;;;2088816;28;1660;-50
2021/03/26 07:45:58;;;;;;;;;;;12.90;72.00;;;;;;2094318;28;1617;-52
2021/03/26 07:47:33;;;;;;;;;;;12.90;72.40;;;;;;2098839;28;1741;-54
2021/03/26 07:49:02;;;;;;;;;;;12.90;72.20;;;;;;2096177;28;1594;-53
2021/03/26 07:50:36;;;;;;;;;;;12.90;72.30;;;;;;2087184;28;1679;-50
2021/03/26 07:52:15;;;;;;;;;;;12.90;72.40;;;;;;2097188;28;1600;-51
2021/03/26 07:53:39;;;;;;;;;;;12.90;72.50;;;;;;2089170;28;1789;-53
2021/03/26 07:55:16;;;;;;;;;;;12.90;72.60;;;;;;2084388;28;1696;-54
2021/03/26 07:56:55;;;;;;;;;;;12.90;72.40;;;;;;2095023;28;1641;-49
2021/03/26 07:58:27;;;;;;;;;;;12.90;72.50;;;;;;2096132;28;1728;-53
2021/03/26 07:59:52;;;;;;;;;;;12.90;72.50;;;;;;2087461;28;1720;-52
2021/03/26 08:01:11;;;;;;;;;;;12.90;72.50;;;;;;2096189;28;1641;-50
2021/03/26 08:02:40;;;;;;;;;;;12.90;73.20;;;;;;2088491;28;1572;-48
2021/03/26 08:04:01;;;;;;;;;;;12.90;73.30;;;;;;2085829;28;1653;-47
2021/03/26 08:05:32;;;;;;;;;;;12.90;72.60;;;;;;2092227;28;1549;-49
2021/03/26 08:07:10;;;;;;;;;;;12.90;72.50;;;;;;2089289;28;1583;-48
2021/03/26 08:08:48;;;;;;;;;;;12.90;72.40;;;;;;2095454;28;1673;-48
2021/03/26 08:10:26;;;;;;;;;;;12.90;72.30;;;;;;2098941;28;1546;-48
2021/03/26 08:11:46;;;;;;;;;;;12.90;72.50;;;;;;2096868;28;1591;-48
2021/03/26 08:13:25;;;;;;;;;;;12.90;72.50;;;;;;2096203;28;1562;-48
2021/03/26 08:14:55;;;;;;;;;;;12.90;72.30;;;;;;2087894;28;1645;-47
2021/03/26 08:16:23;;;;;;;;;;;12.90;73.00;;;;;;2095209;28;1979;-48
2021/03/26 08:17:50;;;;;;;;;;;12.90;72.20;;;;;;2098606;28;1629;-48
2021/03/26 08:19:28;;;;;;;;;;;12.90;72.10;;;;;;2089191;28;1584;-49
2021/03/26 08:21:00;;;;;;;;;;;12.90;72.10;;;;;;2094909;28;1601;-48
2021/03/26 08:22:38;;;;;;;;;;;12.90;72.00;;;;;;2096821;28;1621;-48
2021/03/26 08:24:15;;;;;;;;;;;12.90;72.10;;;;;;2096674;28;1799;-48
2021/03/26 08:25:36;;;;;;;;;;;12.80;71.90;;;;;;2097217;28;1555;-49
2021/03/26 08:27:01;;;;;;;;;;;12.80;71.80;;;;;;2087554;28;1706;-49
2021/03/26 08:28:26;;;;;;;;;;;12.80;71.80;;;;;;2079962;28;1752;-48
2021/03/26 08:29:51;;;;;;;;;;;12.80;71.80;;;;;;2087637;28;1617;-50
2021/03/26 08:31:19;;;;;;;;;;;12.80;72.60;;;;;;2092789;28;1525;-49
2021/03/26 08:32:57;;;;;;;;;;;12.90;74.00;;;;;;2082980;28;1550;-53
2021/03/26 08:34:35;;;;;;;;;;;12.90;78.20;;;;;;2090470;28;1718;-51
2021/03/26 08:36:04;;;;;;;;;;;12.90;76.70;;;;;;2092905;28;1910;-47
2021/03/26 08:37:26;;;;;;;;;;;12.90;76.10;;;;;;2091604;28;1735;-51
2021/03/26 08:38:50;;;;;;;;;;;12.90;75.70;;;;;;2092624;28;1689;-50
2021/03/26 08:40:12;;;;;;;;;;;12.90;75.40;;;;;;2081773;28;1733;-53
2021/03/26 08:41:34;;;;;;;;;;;12.90;75.10;;;;;;2079607;28;1875;-49
2021/03/26 08:42:53;;;;;;;;;;;12.90;74.80;;;;;;2082812;28;1588;-50
2021/03/26 08:44:16;;;;;;;;;;;12.90;74.60;;;;;;2082287;28;1744;-53